createdAt,value
2023-04-21T01:46:48.784Z,12.80
2023-04-21T01:49:16.181Z,10.63
2023-04-21T01:51:43.573Z,11.73
2023-04-21T01:54:13.650Z,10.07
2023-04-21T01:56:40.993Z,14.30
2023-04-21T02:05:42.225Z,14.83
2023-04-21T02:08:10.023Z,12.33
2023-04-21T02:10:37.385Z,12.67
2023-04-21T02:13:04.730Z,10.87
2023-04-21T02:15:32.281Z,11.80
2023-04-21T03:20:25.011Z,15.03
2023-04-21T03:22:53.807Z,13.47
2023-04-21T03:25:21.197Z,12.40
2023-04-21T03:27:48.502Z,12.13
2023-04-21T03:30:15.759Z,12.47
2023-04-21T03:33:05.279Z,12.10
2023-04-21T04:07:11.193Z,10.60
2023-04-21T04:09:40.145Z,16.83
2023-04-21T04:12:08.347Z,15.63
2023-04-21T04:14:37.003Z,16.97
2023-04-21T04:17:04.645Z,15.53
2023-04-21T04:19:32.393Z,14.70
2023-04-21T04:22:00.057Z,15.23
2023-04-21T04:24:27.495Z,18.77
2023-04-21T04:26:56.350Z,18.50
2023-04-21T04:29:23.609Z,15.63
2023-04-21T04:32:21.698Z,16.70
2023-04-21T04:35:01.299Z,16.33
2023-04-21T04:37:28.650Z,16.60
2023-04-21T04:39:55.917Z,18.33
2023-04-21T04:42:24.538Z,17.23
2023-04-21T04:44:53.692Z,19.50
2023-04-21T04:47:21.092Z,18.83
2023-04-21T04:49:48.409Z,17.70
2023-04-21T04:52:15.710Z,20.60
2023-04-21T04:54:43.156Z,18.60
2023-04-21T04:57:10.404Z,17.37
2023-04-21T04:59:39.039Z,14.20
2023-04-21T05:43:31.387Z,20.13
2023-04-21T05:45:58.752Z,22.00
2023-04-21T05:48:26.094Z,20.70
2023-04-21T05:50:53.273Z,20.23
2023-04-21T05:53:20.467Z,23.47
2023-04-21T05:55:47.740Z,22.33
2023-04-21T05:58:14.987Z,19.33
2023-04-21T06:00:43.612Z,19.43
2023-04-21T06:03:11.085Z,21.00
2023-04-21T06:05:38.479Z,21.23
2023-04-21T06:08:06.124Z,17.23
2023-04-21T06:10:33.502Z,20.73
2023-04-21T06:13:00.745Z,21.53
2023-04-21T06:15:28.066Z,20.97
2023-04-21T06:17:56.701Z,21.20
2023-04-21T06:20:24.074Z,23.40
2023-04-21T06:22:51.311Z,19.80
2023-04-21T06:25:18.567Z,22.90
2023-04-21T06:27:45.792Z,25.97
2023-04-21T06:30:13.345Z,23.47
2023-04-21T06:32:40.695Z,23.40
2023-04-21T06:35:09.981Z,25.90
2023-04-21T06:37:37.245Z,27.13
2023-04-21T06:40:04.716Z,24.43
2023-04-21T06:42:31.980Z,25.00
2023-04-21T06:44:59.317Z,25.70
2023-04-21T06:47:26.704Z,25.43
2023-04-21T06:49:54.123Z,20.30
2023-04-21T06:52:22.672Z,23.67
2023-04-21T06:54:50.005Z,26.07
2023-04-21T06:57:17.358Z,27.30
2023-04-21T06:59:45.073Z,26.63
2023-04-21T07:02:12.580Z,28.70
2023-04-21T07:04:39.855Z,28.60
2023-04-21T07:07:07.206Z,29.80
2023-04-21T07:18:15.146Z,24.57
2023-04-21T07:20:42.710Z,27.10
2023-04-21T07:23:09.896Z,28.83
2023-04-21T07:32:22.065Z,24.43
2023-04-21T07:34:50.688Z,29.43
2023-04-21T07:37:18.783Z,29.47
2023-04-21T07:39:45.970Z,26.00
2023-04-21T07:42:13.375Z,27.93
2023-04-21T07:50:20.981Z,33.40
2023-04-21T07:52:48.653Z,30.77
2023-04-21T07:55:16.281Z,33.27
2023-04-21T07:57:43.555Z,34.00
2023-04-21T08:03:41.903Z,31.80
2023-04-21T08:06:11.099Z,34.03
2023-04-21T08:08:38.645Z,32.17
2023-04-21T08:11:06.003Z,31.30
2023-04-21T08:13:33.221Z,37.17
2023-04-21T08:16:00.526Z,28.40
2023-04-21T08:18:27.797Z,31.63
2023-04-21T08:20:55.097Z,31.57
2023-04-21T08:23:23.728Z,35.33
2023-04-21T08:25:52.179Z,31.37
2023-04-21T08:28:19.439Z,32.83
2023-04-21T08:31:02.098Z,27.87
2023-04-21T09:04:43.572Z,25.87
2023-04-21T09:07:12.982Z,25.13
2023-04-21T09:09:52.884Z,27.47
2023-04-21T09:12:20.319Z,27.93
2023-04-21T09:14:47.617Z,27.07
2023-04-21T09:17:16.389Z,24.07
2023-04-21T09:19:43.956Z,27.13
2023-04-21T09:22:16.219Z,25.50
2023-04-21T09:24:45.929Z,27.50
2023-04-21T09:27:13.188Z,21.23
2023-04-21T09:29:46.093Z,24.00
2023-04-21T09:32:17.069Z,25.27
2023-04-21T09:37:37.341Z,25.47
2023-04-21T09:40:05.566Z,22.10
2023-04-21T09:42:36.112Z,21.03
2023-04-21T09:47:38.130Z,22.47
2023-04-21T09:50:54.787Z,21.60
2023-04-21T11:28:28.736Z,14.80
2023-04-21T11:30:56.062Z,13.33
2023-04-21T11:33:23.362Z,12.10
2023-04-21T11:35:50.715Z,10.93
2023-04-21T11:38:17.981Z,13.37
2023-04-21T11:40:46.143Z,13.13
2023-04-21T11:43:18.739Z,12.83
2023-04-21T11:45:50.643Z,12.73
2023-04-21T11:48:18.666Z,14.33
2023-04-21T11:50:49.095Z,16.63
2023-04-21T11:53:22.551Z,12.63
2023-04-21T11:56:11.676Z,12.80
2023-04-21T11:58:44.667Z,14.47
2023-04-21T12:01:15.993Z,12.50
2023-04-21T12:03:43.605Z,13.07
2023-04-21T12:06:11.115Z,14.13
2023-04-21T12:08:40.924Z,14.90
2023-04-21T12:11:08.223Z,15.97
2023-04-21T12:13:41.201Z,14.70
2023-04-21T12:16:08.513Z,15.57
2023-04-21T12:18:37.939Z,14.50
2023-04-21T12:21:05.209Z,13.97
2023-04-21T12:23:54.032Z,17.20
2023-04-21T14:41:16.760Z,15.27
2023-04-21T14:43:47.602Z,14.13
2023-04-21T14:46:16.390Z,13.20
2023-04-21T14:48:43.967Z,13.93
2023-04-21T14:51:11.461Z,13.87
2023-04-21T14:53:38.699Z,12.80
2023-04-21T15:05:20.879Z,13.63
2023-04-21T15:07:48.230Z,15.17
2023-04-21T15:10:15.533Z,13.27
2023-04-21T15:12:43.175Z,13.23
2023-04-21T15:15:10.887Z,15.03
2023-04-21T15:17:38.224Z,13.77
2023-04-21T15:20:06.043Z,12.90
2023-04-21T15:22:34.757Z,14.77
2023-04-21T15:25:02.066Z,14.33
2023-04-21T15:27:29.467Z,14.60
2023-04-21T15:29:56.803Z,8.87
2023-04-21T15:32:24.100Z,6.77
2023-04-21T15:34:51.376Z,14.90
2023-04-21T15:37:18.772Z,14.77
2023-04-21T15:39:47.492Z,16.83
2023-04-21T15:42:15.050Z,17.47
2023-04-21T18:22:18.079Z,20.00
2023-04-21T18:24:45.658Z,17.67
2023-04-21T18:27:13.076Z,17.17
2023-04-21T18:29:40.340Z,16.67
2023-04-21T18:32:07.828Z,16.57
2023-04-21T18:34:35.127Z,12.50
2023-04-21T18:37:02.359Z,12.93
2023-04-21T18:39:30.950Z,9.60
2023-04-21T18:41:58.288Z,11.70
2023-04-21T18:44:25.494Z,8.73
2023-04-21T18:46:52.866Z,8.60
2023-04-21T18:49:20.187Z,9.90
2023-04-21T18:51:47.639Z,10.27
2023-04-21T18:54:15.403Z,9.83
2023-04-21T18:56:44.028Z,9.50
2023-04-21T18:59:11.291Z,12.07
2023-04-21T19:01:40.482Z,12.77
2023-04-21T19:04:08.781Z,9.70
2023-04-21T19:06:36.247Z,9.33
2023-04-21T19:09:03.513Z,11.40
2023-04-21T19:11:30.807Z,8.90
2023-04-21T19:13:59.499Z,8.53
2023-04-21T19:16:27.628Z,9.40
2023-04-21T19:18:54.845Z,9.50
2023-04-21T19:21:22.108Z,7.60
2023-04-21T19:23:49.468Z,6.50
2023-04-21T19:26:16.686Z,6.63
2023-04-21T19:28:43.969Z,7.90
2023-04-21T19:31:12.596Z,7.97
2023-04-21T19:33:40.133Z,7.00
2023-04-21T19:36:07.627Z,7.27
2023-04-21T19:38:34.871Z,7.90
2023-04-21T19:41:02.089Z,6.87
2023-04-21T19:43:29.309Z,7.27
2023-04-21T19:45:56.647Z,8.30
2023-04-21T19:48:25.481Z,8.03
2023-04-21T19:50:52.769Z,7.97
2023-04-21T19:53:20.021Z,10.07
2023-04-21T19:55:47.303Z,7.07
2023-04-21T19:58:19.800Z,9.37
2023-04-21T20:00:55.812Z,8.87
2023-04-21T20:03:23.074Z,8.87
2023-04-21T20:05:51.783Z,9.83
2023-04-21T20:08:19.098Z,12.47
2023-04-21T20:10:46.385Z,10.17
2023-04-21T20:13:14.056Z,10.50
2023-04-21T20:15:41.435Z,13.00
2023-04-21T20:18:08.814Z,9.43
2023-04-21T20:20:36.259Z,10.93
2023-04-21T20:23:04.883Z,12.50
2023-04-21T20:25:32.210Z,12.80
2023-04-21T20:27:59.532Z,19.47
2023-04-21T20:30:26.800Z,10.73
2023-04-21T20:32:54.175Z,12.87
2023-04-21T20:35:21.445Z,12.07
2023-04-21T20:37:48.765Z,14.50
2023-04-21T20:40:17.362Z,16.87
2023-04-21T20:42:44.690Z,14.87
2023-04-21T20:45:12.074Z,15.10
2023-04-21T20:47:39.368Z,15.67
2023-04-21T20:50:07.226Z,15.70
2023-04-21T20:52:34.677Z,12.50
2023-04-21T20:55:01.924Z,13.20
2023-04-21T20:57:30.559Z,11.33
2023-04-21T20:59:57.760Z,17.07
2023-04-21T21:02:25.095Z,18.33
2023-04-21T21:04:52.426Z,9.87
2023-04-21T21:07:19.650Z,20.30
2023-04-21T21:09:46.918Z,14.07
2023-04-21T21:12:14.284Z,12.37
2023-04-21T21:14:42.952Z,16.13
2023-04-21T21:17:10.601Z,16.97
2023-04-21T21:19:38.038Z,11.50
2023-04-21T21:22:05.621Z,18.10
2023-04-21T21:24:32.887Z,12.13
2023-04-21T21:27:00.253Z,10.70
2023-04-21T21:29:27.545Z,13.63
2023-04-21T21:31:56.294Z,10.80
2023-04-21T21:34:23.622Z,13.97
2023-04-21T21:36:50.873Z,14.40
2023-04-21T21:39:18.080Z,13.37
2023-04-21T21:41:45.405Z,13.83
2023-04-21T21:44:12.612Z,11.70
2023-04-21T21:46:40.018Z,14.73
2023-04-21T21:49:08.755Z,14.23
2023-04-21T21:51:36.031Z,12.93
2023-04-21T21:54:03.278Z,12.03
2023-04-21T21:56:30.577Z,14.03
2023-04-21T21:58:57.893Z,12.80
2023-04-21T22:01:25.265Z,11.77
2023-04-21T22:03:52.638Z,14.47
2023-04-21T22:06:21.360Z,13.83
2023-04-21T22:08:48.658Z,12.33
2023-04-21T22:11:15.905Z,11.93
2023-04-21T22:13:43.374Z,13.03
2023-04-21T22:16:10.697Z,12.17
2023-04-21T22:18:37.923Z,12.30
2023-04-21T22:21:05.311Z,13.77
2023-04-21T22:23:36.417Z,10.00
2023-04-21T22:26:03.685Z,11.43
2023-04-21T22:28:30.953Z,12.73
2023-04-21T22:30:58.280Z,10.83
2023-04-21T22:33:25.560Z,13.67
2023-04-21T22:35:52.875Z,16.93
2023-04-21T22:38:20.060Z,13.20
2023-04-21T22:40:48.750Z,17.43
2023-04-21T22:43:16.084Z,16.43
2023-04-21T22:45:43.650Z,10.97
2023-04-21T22:48:10.954Z,14.40
2023-04-21T22:50:38.331Z,12.23
2023-04-21T22:53:05.595Z,15.83
2023-04-21T22:55:38.852Z,10.50
2023-04-21T22:58:07.448Z,13.20
2023-04-21T23:00:34.854Z,14.90
2023-04-21T23:03:02.175Z,16.03
2023-04-21T23:05:54.724Z,12.60
2023-04-21T23:08:37.146Z,13.43
2023-04-21T23:11:04.477Z,16.43
2023-04-21T23:13:33.108Z,14.40
2023-04-21T23:16:00.408Z,16.07
2023-04-21T23:18:27.890Z,11.83
2023-04-21T23:20:55.119Z,17.13
2023-04-21T23:23:25.892Z,17.33
2023-04-21T23:25:53.304Z,13.00
2023-04-21T23:28:20.585Z,15.73
2023-04-21T23:30:49.156Z,14.00
2023-04-21T23:33:31.844Z,13.40
2023-04-21T23:36:30.071Z,12.40
2023-04-21T23:38:57.562Z,14.60
2023-04-21T23:41:24.765Z,14.13
2023-04-21T23:43:52.078Z,21.80
2023-04-21T23:46:21.282Z,17.00
2023-04-21T23:48:48.744Z,17.70
2023-04-21T23:51:16.098Z,14.57
2023-04-21T23:53:43.606Z,17.57
2023-04-21T23:56:10.897Z,15.53
2023-04-21T23:58:38.114Z,17.50
